Time;durP1;ratioP1;P1;durP2;ratioP2;P2;SDS_P1;SDS_P2;PMS_P1;PMS_P2;Temp;Humidity;BMP_temperature;BMP_pressure;BME280_temperature;BME280_humidity;BME280_pressure;Samples;Min_cycle;Max_cycle;Signal;HPM_P1;HPM_P2
2021/10/18 00:00:25;;;;;;;25.90;15.90;;;;;;;9.45;97.87;101749.75;5059049;28;20084;-83
2021/10/18 00:02:50;;;;;;;22.80;15.32;;;;;;;9.46;97.40;101762.16;5062203;28;20097;-85
2021/10/18 00:05:16;;;;;;;24.13;16.25;;;;;;;9.45;97.27;101749.75;5046029;28;20119;-87
2021/10/18 00:07:41;;;;;;;21.55;14.93;;;;;;;9.44;97.22;101752.56;5052731;28;20115;-89
2021/10/18 00:10:08;;;;;;;21.20;14.70;;;;;;;9.44;96.69;101758.78;5074280;28;20497;-83
2021/10/18 00:12:35;;;;;;;24.35;15.40;;;;;;;9.45;96.40;101759.63;5046624;28;20513;-83
2021/10/18 00:15:01;;;;;;;22.88;14.95;;;;;;;9.43;96.27;101765.09;5047009;28;20080;-84
2021/10/18 00:17:26;;;;;;;23.60;14.38;;;;;;;9.44;96.01;101757.94;5038034;28;20132;-84
2021/10/18 00:19:52;;;;;;;20.83;14.85;;;;;;;9.42;95.52;101760.72;5030915;28;20053;-82
2021/10/18 00:22:18;;;;;;;20.80;14.07;;;;;;;9.42;95.66;101765.25;5048122;28;20037;-86
2021/10/18 00:24:44;;;;;;;20.73;14.00;;;;;;;9.40;95.41;101767.19;5028073;28;20049;-84
2021/10/18 00:27:09;;;;;;;20.95;14.18;;;;;;;9.39;95.19;101769.03;5034678;28;20037;-81
2021/10/18 00:29:36;;;;;;;21.77;14.93;;;;;;;9.39;95.16;101768.19;5038051;28;20398;-86
2021/10/18 00:32:01;;;;;;;20.38;13.52;;;;;;;9.36;95.33;101766.63;5041288;28;20073;-85
2021/10/18 00:34:28;;;;;;;21.33;13.70;;;;;;;9.35;95.21;101772.09;5038996;28;20065;-87
2021/10/18 00:36:53;;;;;;;18.98;14.30;;;;;;;9.34;95.33;101775.78;5039276;28;20060;-83
2021/10/18 00:39:18;;;;;;;22.35;14.48;;;;;;;9.32;95.40;101767.00;5053336;28;20526;-85
2021/10/18 00:41:44;;;;;;;20.90;13.65;;;;;;;9.32;95.43;101767.88;5048565;28;20032;-89
2021/10/18 00:44:09;;;;;;;22.38;13.27;;;;;;;9.30;95.97;101763.63;5041499;28;20037;-89
2021/10/18 00:46:35;;;;;;;19.92;14.25;;;;;;;9.27;95.63;101764.75;5038241;28;20032;-83
2021/10/18 00:49:00;;;;;;;24.75;14.32;;;;;;;9.29;95.85;101759.25;5040364;28;20032;-84
2021/10/18 00:51:28;;;;;;;17.83;12.57;;;;;;;9.27;95.42;101757.56;5041333;28;20111;-88
2021/10/18 00:53:56;;;;;;;22.23;13.75;;;;;;;9.26;95.39;101755.00;5014784;28;20025;-85
2021/10/18 00:56:22;;;;;;;20.42;14.20;;;;;;;9.26;95.65;101750.50;5045289;28;20044;-87
2021/10/18 00:58:49;;;;;;;19.63;13.57;;;;;;;9.26;95.17;101750.50;5036202;28;20150;-82
2021/10/18 01:01:15;;;;;;;22.40;13.80;;;;;;;9.25;95.31;101746.13;5039221;28;20045;-87
2021/10/18 01:03:41;;;;;;;18.55;13.32;;;;;;;9.25;95.48;101754.16;5046212;28;20106;-82
2021/10/18 01:06:07;;;;;;;21.08;12.75;;;;;;;9.23;95.26;101758.78;5049125;28;20044;-87
2021/10/18 01:08:33;;;;;;;22.70;13.38;;;;;;;9.23;95.22;101764.13;5038784;28;20041;-88
2021/10/18 01:10:58;;;;;;;17.90;12.45;;;;;;;9.22;95.01;101759.78;5046209;28;20033;-87
2021/10/18 01:13:24;;;;;;;22.17;13.25;;;;;;;9.22;95.18;101751.75;5051258;28;20101;-84
2021/10/18 01:15:50;;;;;;;20.90;13.68;;;;;;;9.23;95.16;101752.56;5049044;28;20036;-84
2021/10/18 01:18:16;;;;;;;24.50;12.68;;;;;;;9.22;95.18;101754.41;5040579;28;20115;-86
2021/10/18 01:20:41;;;;;;;19.20;12.95;;;;;;;9.21;95.07;101763.44;5041108;28;20486;-83
2021/10/18 01:23:09;;;;;;;19.00;12.73;;;;;;;9.22;94.88;101761.59;5048503;28;20488;-91
2021/10/18 01:25:35;;;;;;;18.73;12.57;;;;;;;9.20;94.99;101758.19;5063788;28;20068;-88
2021/10/18 01:28:00;;;;;;;23.55;12.85;;;;;;;9.20;94.74;101756.38;5071244;28;20056;-87
2021/10/18 01:30:26;;;;;;;18.65;12.55;;;;;;;9.20;94.77;101758.19;5073939;28;20032;-86
2021/10/18 01:32:53;;;;;;;16.75;12.50;;;;;;;9.21;94.71;101750.06;5071269;28;20302;-86
2021/10/18 01:35:18;;;;;;;17.27;12.43;;;;;;;9.19;94.66;101759.19;5072062;28;20128;-88
2021/10/18 01:37:44;;;;;;;25.50;14.07;;;;;;;9.17;94.74;101764.66;5062368;28;20056;-81
2021/10/18 01:40:12;;;;;;;19.50;12.65;;;;;;;9.17;94.67;101767.34;5072179;28;20041;-83
2021/10/18 01:42:38;;;;;;;21.53;12.93;;;;;;;9.17;94.33;101769.19;5054504;28;20037;-87
2021/10/18 01:45:08;;;;;;;20.38;13.40;;;;;;;9.16;94.28;101772.84;5071281;28;20083;-85
2021/10/18 01:47:34;;;;;;;19.88;13.65;;;;;;;9.17;94.24;101777.22;5071040;28;20059;-86
2021/10/18 01:50:00;;;;;;;19.30;12.77;;;;;;;9.17;94.36;101772.69;5056072;28;20477;-87
2021/10/18 01:52:26;;;;;;;22.38;12.77;;;;;;;9.17;94.57;101775.38;5072173;28;20041;-82
2021/10/18 01:54:51;;;;;;;17.30;12.82;;;;;;;9.15;94.70;101772.00;5071232;28;20484;-87
2021/10/18 01:57:18;;;;;;;20.63;12.65;;;;;;;9.15;94.41;101776.50;5071742;28;20045;-86
2021/10/18 01:59:44;;;;;;;21.50;13.18;;;;;;;9.14;94.54;101770.28;5050594;28;20041;-82
2021/10/18 02:02:09;;;;;;;16.90;12.48;;;;;;;9.13;94.34;101776.63;5071166;28;20028;-86
2021/10/18 02:04:35;;;;;;;19.52;13.32;;;;;;;9.13;94.38;101771.28;5072359;28;20123;-83
2021/10/18 02:07:00;;;;;;;22.73;13.27;;;;;;;9.13;94.03;101765.94;5066244;28;20400;-84
2021/10/18 02:09:25;;;;;;;20.05;12.68;;;;;;;9.13;94.20;101767.75;5071729;28;20044;-84
2021/10/18 02:11:51;;;;;;;20.17;13.27;;;;;;;9.11;94.25;101762.53;5069019;28;20036;-85
2021/10/18 02:14:16;;;;;;;23.83;13.52;;;;;;;9.11;94.56;101759.00;5070167;28;20060;-87
2021/10/18 02:16:42;;;;;;;19.42;13.55;;;;;;;9.08;94.50;101754.75;5070246;28;20047;-87
2021/10/18 02:19:07;;;;;;;20.77;13.13;;;;;;;9.05;94.58;101755.00;5071233;28;20036;-85
2021/10/18 02:21:33;;;;;;;21.85;13.07;;;;;;;9.03;94.71;101755.16;5070110;28;20040;-87
2021/10/18 02:23:59;;;;;;;25.05;13.88;;;;;;;9.02;94.41;101756.13;5069384;28;20268;-83
2021/10/18 02:26:24;;;;;;;20.42;13.60;;;;;;;9.00;94.43;101758.06;5071393;28;20037;-87
2021/10/18 02:28:49;;;;;;;20.73;13.73;;;;;;;8.99;94.43;101763.56;5069381;28;20495;-83
2021/10/18 02:31:15;;;;;;;23.05;14.07;;;;;;;8.98;94.25;101772.59;5070002;28;20044;-85
2021/10/18 02:33:40;;;;;;;23.15;14.93;;;;;;;8.98;94.33;101770.75;5069773;28;20128;-82
2021/10/18 02:36:06;;;;;;;20.10;13.70;;;;;;;8.96;94.16;101771.88;5070730;28;20484;-82
2021/10/18 02:38:31;;;;;;;22.33;14.90;;;;;;;8.96;94.48;101769.19;5071145;28;20040;-83
2021/10/18 02:40:57;;;;;;;20.58;14.40;;;;;;;8.96;94.15;101770.03;5070366;28;20092;-87
2021/10/18 02:43:22;;;;;;;22.02;15.05;;;;;;;8.95;94.38;101767.50;5069297;28;20040;-84
2021/10/18 02:45:49;;;;;;;20.58;13.95;;;;;;;8.93;94.29;101769.44;5052288;28;20032;-87
2021/10/18 02:48:15;;;;;;;26.77;14.45;;;;;;;8.91;94.41;101758.00;5070810;28;20127;-89
2021/10/18 02:50:40;;;;;;;18.60;12.88;;;;;;;8.91;94.41;101758.84;5069694;28;20131;-87
2021/10/18 02:53:06;;;;;;;20.15;14.05;;;;;;;8.90;94.17;101753.66;5069991;28;20039;-85
2021/10/18 02:55:31;;;;;;;23.08;14.90;;;;;;;8.87;94.38;101757.44;5066319;28;20401;-88
2021/10/18 02:57:57;;;;;;;25.10;14.95;;;;;;;8.85;94.68;101766.56;5047919;28;20040;-87
2021/10/18 03:00:22;;;;;;;21.13;14.65;;;;;;;8.84;94.61;101770.22;5052756;28;20043;-84
2021/10/18 03:02:48;;;;;;;26.38;15.05;;;;;;;8.81;94.60;101766.81;5069249;28;20489;-81
2021/10/18 03:05:13;;;;;;;24.70;14.57;;;;;;;8.79;94.45;101771.44;5065007;28;20041;-87
2021/10/18 03:07:38;;;;;;;24.77;14.73;;;;;;;8.79;94.63;101760.75;5063165;28;20045;-87
2021/10/18 03:10:05;;;;;;;22.73;15.18;;;;;;;8.79;94.58;101752.72;5068369;28;20033;-86
2021/10/18 03:12:30;;;;;;;23.30;14.63;;;;;;;8.77;94.59;101753.81;5066112;28;20093;-88
2021/10/18 03:14:55;;;;;;;23.25;14.90;;;;;;;8.76;94.97;101752.97;5069338;28;20067;-83
2021/10/18 03:17:21;;;;;;;22.00;14.13;;;;;;;8.75;95.18;101755.78;5057802;28;20041;-83
2021/10/18 03:19:46;;;;;;;23.38;14.07;;;;;;;8.73;95.14;101753.22;5071175;28;20048;-83
2021/10/18 03:22:11;;;;;;;22.80;14.48;;;;;;;8.71;95.05;101749.84;5051511;28;20430;-84
2021/10/18 03:24:37;;;;;;;19.80;14.15;;;;;;;8.72;95.00;101750.72;5070387;28;20048;-84
2021/10/18 03:27:02;;;;;;;24.50;15.13;;;;;;;8.71;95.23;101752.50;5051215;28;20044;-88
2021/10/18 03:29:28;;;;;;;25.58;14.35;;;;;;;8.72;95.10;101766.75;5052488;28;20071;-87
2021/10/18 03:31:53;;;;;;;20.60;13.75;;;;;;;8.71;95.26;101757.84;5071264;28;20060;-84
2021/10/18 03:34:18;;;;;;;23.02;13.63;;;;;;;8.72;95.16;101764.94;5055308;28;20036;-85
2021/10/18 03:36:44;;;;;;;19.00;14.13;;;;;;;8.71;95.13;101762.38;5053905;28;20041;-85
2021/10/18 03:39:09;;;;;;;18.35;12.95;;;;;;;8.71;95.20;101760.53;5064569;28;20486;-84
2021/10/18 03:41:34;;;;;;;22.55;14.32;;;;;;;8.73;95.23;101761.25;5048301;28;20226;-86
2021/10/18 03:44:01;;;;;;;21.08;13.63;;;;;;;8.73;95.50;101768.44;5048263;28;20126;-84
2021/10/18 03:46:26;;;;;;;22.70;13.45;;;;;;;8.73;95.01;101768.44;5048896;28;20508;-85
2021/10/18 03:48:52;;;;;;;18.30;13.52;;;;;;;8.72;95.45;101766.75;5050584;28;20044;-87
2021/10/18 03:51:17;;;;;;;22.27;13.43;;;;;;;8.71;95.52;101768.56;5058432;28;20147;-86
2021/10/18 03:53:42;;;;;;;19.15;13.50;;;;;;;8.71;95.73;101771.25;5059381;28;20173;-85
2021/10/18 03:56:08;;;;;;;21.98;14.00;;;;;;;8.70;95.57;101764.19;5058557;28;20045;-85
2021/10/18 03:58:33;;;;;;;20.10;13.70;;;;;;;8.70;95.79;101774.91;5042426;28;20068;-88
2021/10/18 04:00:59;;;;;;;20.40;12.98;;;;;;;8.70;95.37;101769.56;5057058;28;20037;-87
2021/10/18 04:03:24;;;;;;;20.27;13.10;;;;;;;8.70;95.64;101769.56;5053090;28;20055;-82
2021/10/18 04:05:49;;;;;;;20.60;13.70;;;;;;;8.69;95.78;101770.53;5056927;28;20041;-84
2021/10/18 04:08:15;;;;;;;23.52;14.70;;;;;;;8.69;95.92;101767.88;5061003;28;20041;-84
2021/10/18 04:10:40;;;;;;;23.65;14.68;;;;;;;8.69;96.22;101767.00;5052239;28;20151;-84
2021/10/18 04:13:06;;;;;;;22.23;13.90;;;;;;;8.69;95.86;101759.84;5058058;28;20623;-84
2021/10/18 04:15:31;;;;;;;18.25;13.70;;;;;;;8.70;95.77;101760.69;5054861;28;20045;-88
2021/10/18 04:17:57;;;;;;;23.50;14.40;;;;;;;8.70;95.84;101764.19;5061237;28;20052;-84
2021/10/18 04:20:22;;;;;;;23.95;13.57;;;;;;;8.69;95.88;101762.50;5059774;28;20053;-84
2021/10/18 04:22:48;;;;;;;20.23;13.90;;;;;;;8.69;96.23;101758.97;5073144;28;20053;-84
2021/10/18 04:25:14;;;;;;;19.95;13.55;;;;;;;8.69;96.21;101764.31;5060943;28;20401;-88
2021/10/18 04:27:41;;;;;;;20.23;13.60;;;;;;;8.69;96.27;101772.34;5055693;28;20073;-87
2021/10/18 04:30:07;;;;;;;16.80;12.70;;;;;;;8.70;96.57;101756.16;5062975;28;20045;-86
2021/10/18 04:32:32;;;;;;;23.17;13.95;;;;;;;8.70;96.81;101764.19;5044865;28;20094;-85
2021/10/18 04:34:57;;;;;;;18.65;14.27;;;;;;;8.72;96.49;101759.56;5055276;28;20501;-87
2021/10/18 04:37:24;;;;;;;23.02;13.70;;;;;;;8.73;96.50;101766.63;5025250;28;20041;-89
2021/10/18 04:39:49;;;;;;;19.65;13.27;;;;;;;8.73;96.65;101766.63;5033967;28;20444;-84
2021/10/18 04:42:14;;;;;;;20.88;13.55;;;;;;;8.73;96.34;101763.94;5030759;28;20041;-86
2021/10/18 04:44:40;;;;;;;22.50;13.65;;;;;;;8.74;96.41;101768.31;5022884;28;20050;-87
2021/10/18 04:47:05;;;;;;;19.63;13.38;;;;;;;8.71;96.77;101771.25;5027035;28;20053;-84
2021/10/18 04:49:31;;;;;;;20.05;13.07;;;;;;;8.72;96.94;101767.59;5034023;28;20095;-82
2021/10/18 04:51:56;;;;;;;22.52;13.68;;;;;;;8.73;97.01;101777.31;5028031;28;20124;-82
2021/10/18 04:54:22;;;;;;;20.98;13.57;;;;;;;8.73;97.01;101771.13;5029460;28;20474;-85
2021/10/18 04:56:47;;;;;;;20.40;13.68;;;;;;;8.74;96.97;101786.19;5030451;28;20056;-85
2021/10/18 04:59:13;;;;;;;23.15;14.40;;;;;;;8.73;97.12;101790.69;5038493;28;20567;-83
2021/10/18 05:01:38;;;;;;;22.90;14.25;;;;;;;8.74;96.92;101795.06;5034085;28;20119;-83
2021/10/18 05:04:03;;;;;;;22.35;13.95;;;;;;;8.76;97.11;101795.78;5031843;28;20053;-87
2021/10/18 05:06:30;;;;;;;21.90;13.75;;;;;;;8.76;97.15;101793.13;5036187;28;20038;-84
2021/10/18 05:08:55;;;;;;;21.13;13.35;;;;;;;8.76;97.12;101800.31;5056783;28;20101;-84
2021/10/18 05:11:21;;;;;;;24.15;13.98;;;;;;;8.75;97.29;101794.09;5055998;28;20048;-86
2021/10/18 05:13:46;;;;;;;20.65;13.20;;;;;;;8.74;97.44;101788.88;5047485;28;20047;-85
2021/10/18 05:16:12;;;;;;;19.95;13.02;;;;;;;8.74;97.18;101797.75;5064345;28;20058;-84
2021/10/18 05:18:37;;;;;;;19.63;13.05;;;;;;;8.73;97.39;101785.34;5056949;28;20061;-85
2021/10/18 05:21:06;;;;;;;25.33;14.30;;;;;;;8.71;97.30;101798.00;5058026;28;20559;-83
2021/10/18 05:23:34;;;;;;;21.08;14.00;;;;;;;8.69;97.62;101799.97;5065416;28;20571;-82
2021/10/18 05:26:01;;;;;;;22.80;13.97;;;;;;;8.69;97.46;101804.44;5061778;28;20044;-82
2021/10/18 05:28:26;;;;;;;22.00;13.13;;;;;;;8.64;97.49;101807.53;5081805;28;20450;-86
2021/10/18 05:30:52;;;;;;;24.05;13.85;;;;;;;8.63;97.59;101803.16;5054107;28;20501;-86
2021/10/18 05:33:17;;;;;;;22.67;14.52;;;;;;;8.59;97.50;101805.22;5039349;28;20490;-84
2021/10/18 05:35:43;;;;;;;22.33;14.20;;;;;;;8.57;97.47;101807.19;5032127;28;20046;-86
2021/10/18 05:38:08;;;;;;;21.05;13.65;;;;;;;8.55;97.62;101802.94;5027186;28;20053;-83
2021/10/18 05:40:33;;;;;;;21.95;13.68;;;;;;;8.51;97.69;101806.81;5041878;28;20053;-85
2021/10/18 05:42:59;;;;;;;22.08;13.80;;;;;;;8.48;97.55;101801.72;5035501;28;20390;-87
2021/10/18 05:45:24;;;;;;;30.50;15.25;;;;;;;8.46;97.75;101804.56;5036535;28;20132;-85
2021/10/18 05:47:58;;;;;;;21.63;14.40;;;;;;;8.41;97.60;101801.41;5022407;28;20307;-84
2021/10/18 05:50:27;;;;;;;24.33;14.98;;;;;;;8.37;97.54;101810.59;5022978;28;20461;-85
2021/10/18 05:52:53;;;;;;;23.48;15.15;;;;;;;8.35;97.76;101812.56;5039670;28;20461;-89
2021/10/18 05:55:19;;;;;;;22.08;14.52;;;;;;;8.32;97.89;101816.34;5035268;28;20044;-89
2021/10/18 05:57:50;;;;;;;24.50;15.57;;;;;;;8.31;97.91;101819.13;5036225;28;20046;-87
2021/10/18 06:00:16;;;;;;;22.40;14.50;;;;;;;8.26;98.16;101816.84;5048616;28;20057;-82
2021/10/18 06:02:42;;;;;;;25.70;15.98;;;;;;;8.24;98.22;101816.09;5055228;28;20048;-88
2021/10/18 06:05:07;;;;;;;24.23;14.88;;;;;;;8.21;98.62;101816.34;5046234;28;20040;-82
2021/10/18 06:07:33;;;;;;;25.50;14.43;;;;;;;8.21;98.58;101820.84;5058798;28;20033;-82
2021/10/18 06:09:58;;;;;;;25.58;15.50;;;;;;;8.17;98.88;101822.94;5017676;28;20032;-88
2021/10/18 06:12:23;;;;;;;25.90;16.10;;;;;;;8.18;98.78;101838.00;5052166;28;20604;-84
2021/10/18 06:14:49;;;;;;;25.27;14.82;;;;;;;8.17;98.99;101830.97;5028603;28;20485;-84
2021/10/18 06:17:15;;;;;;;25.73;15.05;;;;;;;8.17;99.00;101828.28;5040194;28;20069;-88
2021/10/18 06:19:40;;;;;;;23.98;15.68;;;;;;;8.17;99.01;101836.31;5043983;28;20080;-84
2021/10/18 06:22:06;;;;;;;25.58;15.85;;;;;;;8.17;98.89;101832.75;5045022;28;20114;-87
2021/10/18 06:24:31;;;;;;;23.70;15.05;;;;;;;8.17;98.73;101825.59;5052092;28;20115;-84
2021/10/18 06:26:56;;;;;;;23.08;14.45;;;;;;;8.12;99.19;101825.13;5058925;28;20032;-83
2021/10/18 06:29:22;;;;;;;21.35;14.88;;;;;;;8.14;99.25;101831.16;5062054;28;20498;-84
2021/10/18 06:31:47;;;;;;;24.98;15.18;;;;;;;8.14;99.38;101831.16;5068322;28;20520;-88
2021/10/18 06:34:13;;;;;;;24.23;15.68;;;;;;;8.16;99.30;101839.09;5069343;28;20033;-84
2021/10/18 06:36:38;;;;;;;22.95;15.27;;;;;;;8.16;99.62;101845.28;5069930;28;20072;-86
2021/10/18 06:39:04;;;;;;;23.50;14.95;;;;;;;8.15;99.79;101838.25;5056362;28;20037;-87
2021/10/18 06:41:29;;;;;;;26.92;15.85;;;;;;;8.16;99.50;101839.94;5061241;28;20122;-88
2021/10/18 06:43:55;;;;;;;26.23;15.85;;;;;;;8.17;99.67;101846.13;5066062;28;20045;-85
2021/10/18 06:46:20;;;;;;;22.98;14.48;;;;;;;8.17;99.97;101840.78;5058289;28;20040;-86
2021/10/18 06:48:46;;;;;;;22.50;14.85;;;;;;;8.18;99.84;101835.31;5060087;28;20068;-84
2021/10/18 06:51:11;;;;;;;22.27;14.68;;;;;;;8.18;99.88;101819.28;5039930;28;20071;-84
2021/10/18 06:53:37;;;;;;;22.55;15.43;;;;;;;8.22;100.00;101823.38;5047959;28;20045;-86
2021/10/18 06:56:05;;;;;;;24.13;14.75;;;;;;;8.23;99.68;101818.88;5045617;28;20037;-89
2021/10/18 06:58:30;;;;;;;22.10;15.23;;;;;;;8.25;99.83;101816.94;5029940;28;20068;-87
2021/10/18 07:00:56;;;;;;;24.33;14.95;;;;;;;8.27;100.00;101825.69;5044942;28;20383;-83
2021/10/18 07:03:21;;;;;;;23.52;13.93;;;;;;;8.30;99.92;101823.63;5045212;28;20033;-83
2021/10/18 07:05:47;;;;;;;29.00;16.42;;;;;;;8.32;99.61;101824.34;5044153;28;20401;-84
2021/10/18 07:08:13;;;;;;;26.88;15.48;;;;;;;8.36;99.49;101822.28;5049624;28;20029;-86
2021/10/18 07:10:38;;;;;;;24.25;14.20;;;;;;;8.42;99.45;101827.16;5070882;28;20516;-86
2021/10/18 07:13:09;;;;;;;26.40;15.13;;;;;;;8.46;99.03;101827.75;5068114;28;20032;-86
2021/10/18 07:15:34;;;;;;;24.55;15.45;;;;;;;8.50;98.86;101830.06;5061130;28;20146;-85
2021/10/18 07:18:00;;;;;;;21.23;14.40;;;;;;;8.55;98.78;101835.03;5065676;28;20470;-86
2021/10/18 07:20:25;;;;;;;29.02;15.43;;;;;;;8.58;99.07;101835.63;5086315;28;20593;-85
2021/10/18 07:22:55;;;;;;;22.20;14.68;;;;;;;8.64;98.96;101850.34;5053345;28;20045;-83
2021/10/18 07:25:21;;;;;;;25.98;15.45;;;;;;;8.69;99.11;101852.63;5049066;28;20098;-83
2021/10/18 07:27:46;;;;;;;23.02;15.48;;;;;;;8.75;98.66;101847.63;5069071;28;20044;-84
2021/10/18 07:30:12;;;;;;;22.88;14.80;;;;;;;8.80;98.36;101848.09;5069912;28;20048;-85
2021/10/18 07:32:40;;;;;;;23.83;14.73;;;;;;;8.85;98.01;101854.91;5072889;28;20032;-87
2021/10/18 07:35:07;;;;;;;21.50;15.23;;;;;;;8.90;97.66;101850.00;5068263;28;20421;-89
2021/10/18 07:37:33;;;;;;;20.52;13.57;;;;;;;8.96;97.67;101853.03;5069495;28;20078;-83
2021/10/18 07:39:58;;;;;;;21.52;14.18;;;;;;;9.00;97.28;101859.81;5067788;28;20048;-83
2021/10/18 07:42:24;;;;;;;23.48;14.75;;;;;;;9.04;96.90;101855.06;5069208;28;20378;-83
2021/10/18 07:44:49;;;;;;;20.25;13.93;;;;;;;9.09;97.17;101855.53;5085064;28;20378;-84
2021/10/18 07:47:15;;;;;;;21.95;13.98;;;;;;;9.14;97.04;101850.63;5069938;28;20040;-85
2021/10/18 07:49:42;;;;;;;22.55;13.30;;;;;;;9.20;96.77;101858.13;5085916;28;20111;-87
2021/10/18 07:52:11;;;;;;;19.88;13.57;;;;;;;9.27;96.95;101859.34;5067841;28;20067;-85
2021/10/18 07:54:39;;;;;;;22.42;15.23;;;;;;;9.32;96.51;101850.94;5068972;28;20152;-82
2021/10/18 07:57:05;;;;;;;19.02;13.20;;;;;;;9.39;96.43;101854.75;5084296;28;20040;-85
2021/10/18 07:59:30;;;;;;;19.42;13.98;;;;;;;9.45;95.99;101864.09;5052872;28;20490;-84
2021/10/18 08:01:56;;;;;;;22.45;13.55;;;;;;;9.50;95.89;101853.84;5060348;28;20532;-83
2021/10/18 08:04:22;;;;;;;19.15;13.02;;;;;;;9.55;95.42;101850.75;5085430;28;20439;-82
2021/10/18 08:06:47;;;;;;;21.05;13.88;;;;;;;9.60;95.34;101856.59;5068670;28;20040;-86
2021/10/18 08:09:13;;;;;;;19.27;12.85;;;;;;;9.65;95.00;101857.03;5067900;28;20443;-89
2021/10/18 08:11:38;;;;;;;19.35;13.00;;;;;;;9.69;94.81;101845.06;5068730;28;20068;-87
2021/10/18 08:14:04;;;;;;;18.90;12.38;;;;;;;9.74;93.99;101848.19;5068922;28;20042;-89
2021/10/18 08:16:30;;;;;;;16.95;11.70;;;;;;;9.77;93.51;101845.25;5068475;28;20048;-84
2021/10/18 08:18:55;;;;;;;17.90;12.25;;;;;;;9.81;93.47;101862.78;5069645;28;20090;-84
2021/10/18 08:21:22;;;;;;;16.48;11.05;;;;;;;9.86;93.18;101857.84;5067278;28;20497;-89
2021/10/18 08:23:48;;;;;;;17.42;11.82;;;;;;;9.95;93.17;101864.25;5084721;28;20040;-84
2021/10/18 08:26:13;;;;;;;20.15;11.85;;;;;;;10.02;93.04;101860.06;5084569;28;20135;-85
2021/10/18 08:28:39;;;;;;;18.27;11.85;;;;;;;10.10;92.85;101854.88;5063788;28;20041;-88
2021/10/18 08:31:04;;;;;;;16.70;11.43;;;;;;;10.19;92.59;101855.03;5048975;28;20041;-86
2021/10/18 08:33:30;;;;;;;14.70;11.15;;;;;;;10.23;92.07;101851.94;5063372;28;20087;-83
2021/10/18 08:35:55;;;;;;;15.88;11.13;;;;;;;10.32;91.66;101844.94;5056696;28;20044;-87
2021/10/18 08:41:17;;;;;;;14.70;11.65;;;;;;;10.47;91.54;101840.91;5059589;28;20063;-85
2021/10/18 08:46:27;;;;;;;17.83;12.85;;;;;;;10.60;91.29;101849.53;5061716;28;20065;-89
2021/10/18 08:48:55;;;;;;;20.10;12.43;;;;;;;10.65;90.79;101842.91;5054004;28;20033;-87
2021/10/18 08:51:21;;;;;;;19.65;13.63;;;;;;;10.70;90.45;101849.53;5032725;28;20188;-82
2021/10/18 08:53:47;;;;;;;19.88;13.45;;;;;;;10.77;90.12;101839.09;5037302;28;20471;-86
2021/10/18 08:56:12;;;;;;;21.67;14.93;;;;;;;10.79;89.09;101850.56;5031613;28;20041;-86
2021/10/18 08:58:37;;;;;;;19.80;13.85;;;;;;;10.85;88.98;101852.69;5042303;28;20045;-84
2021/10/18 09:01:03;;;;;;;21.70;14.82;;;;;;;10.90;88.73;101853.06;5038000;28;20037;-88
2021/10/18 09:03:32;;;;;;;20.65;15.10;;;;;;;10.96;88.23;101859.72;5034191;28;20033;-83
2021/10/18 09:06:12;;;;;;;24.50;15.35;;;;;;;11.03;87.60;101855.50;5026114;28;20088;-87
2021/10/18 09:08:39;;;;;;;21.70;14.15;;;;;;;11.05;87.19;101857.06;5036835;28;20038;-85
2021/10/18 09:11:09;;;;;;;20.08;13.73;;;;;;;11.11;86.98;101862.88;5043200;28;20038;-83
2021/10/18 09:13:36;;;;;;;19.25;13.85;;;;;;;11.12;86.73;101857.34;5034265;28;20068;-84
2021/10/18 09:16:03;;;;;;;20.85;13.13;;;;;;;11.17;86.57;101859.59;5035315;28;20050;-82
2021/10/18 09:18:28;;;;;;;19.45;13.70;;;;;;;11.22;87.02;101860.00;5076483;28;20044;-83
2021/10/18 09:20:54;;;;;;;16.95;12.88;;;;;;;11.30;87.69;101857.47;5056686;28;20055;-85
2021/10/18 09:23:26;;;;;;;16.52;12.63;;;;;;;11.36;87.82;101859.56;5066557;28;20561;-82
2021/10/18 09:26:06;;;;;;;15.93;12.57;;;;;;;11.40;87.77;101863.69;5063610;28;20061;-82
2021/10/18 09:28:33;;;;;;;17.95;12.25;;;;;;;11.41;87.06;101860.00;5047313;28;20041;-84
2021/10/18 09:31:00;;;;;;;19.08;11.65;;;;;;;11.46;87.26;101860.41;5064384;28;20521;-83
2021/10/18 09:33:34;;;;;;;15.73;11.45;;;;;;;11.53;87.30;101856.13;5066478;28;20037;-86
2021/10/18 09:36:04;;;;;;;17.80;12.75;;;;;;;11.62;86.96;101851.72;5066713;28;20453;-88
2021/10/18 09:38:29;;;;;;;16.27;11.13;;;;;;;11.70;86.47;101849.16;5079099;28;20057;-85
2021/10/18 09:40:58;;;;;;;16.52;11.98;;;;;;;11.80;86.99;101851.84;5065788;28;20079;-85
2021/10/18 09:43:37;;;;;;;21.08;11.65;;;;;;;11.90;87.22;101850.00;5050284;28;20578;-83
2021/10/18 09:46:19;;;;;;;18.35;11.63;;;;;;;11.98;86.63;101851.94;5042519;28;20049;-83
2021/10/18 10:53:23;;;;;;;14.07;9.52;;;;;;;13.34;76.15;101789.06;5036983;28;20044;-83
2021/10/18 10:55:50;;;;;;;17.35;9.98;;;;;;;13.38;76.01;101787.75;5043266;28;20075;-87
2021/10/18 10:58:32;;;;;;;12.27;8.85;;;;;;;13.42;76.12;101788.28;5039492;28;20034;-89
2021/10/18 11:00:58;;;;;;;13.73;9.73;;;;;;;13.50;76.91;101785.63;5036228;28;20041;-87
2021/10/18 11:03:30;;;;;;;14.05;8.75;;;;;;;13.51;74.85;101792.72;5042310;28;20122;-82
2021/10/18 11:06:13;;;;;;;18.65;10.25;;;;;;;13.57;75.30;101793.91;5044478;28;20040;-85
2021/10/18 11:08:45;;;;;;;15.02;9.40;;;;;;;13.62;74.96;101775.41;5059313;28;20484;-84
2021/10/18 11:11:24;;;;;;;15.55;9.02;;;;;;;13.64;74.57;101774.25;5049049;28;20166;-85
2021/10/18 11:13:57;;;;;;;14.85;10.00;;;;;;;13.66;74.69;101764.13;5038675;28;20076;-88
2021/10/18 11:16:28;;;;;;;13.00;9.45;;;;;;;13.71;74.91;101761.81;5042767;28;20048;-84
2021/10/18 11:18:56;;;;;;;15.90;9.88;;;;;;;13.70;74.77;101770.91;5042206;28;20041;-87
2021/10/18 11:21:23;;;;;;;14.60;9.60;;;;;;;13.76;75.80;101769.41;5038484;28;20049;-87
2021/10/18 11:24:12;;;;;;;12.10;8.93;;;;;;;13.80;75.51;101768.06;5040527;28;20044;-88
2021/10/18 11:26:40;;;;;;;11.32;9.05;;;;;;;13.81;74.52;101766.22;5056028;28;20294;-87
2021/10/18 11:29:09;;;;;;;16.02;9.35;;;;;;;13.81;74.21;101766.22;5042840;28;20061;-86
2021/10/18 11:31:43;;;;;;;13.87;9.10;;;;;;;13.85;74.31;101762.22;5056933;28;20321;-83
2021/10/18 11:34:15;;;;;;;14.80;9.10;;;;;;;13.93;74.30;101763.09;5061316;28;20612;-83
2021/10/18 11:36:46;;;;;;;12.55;9.20;;;;;;;14.00;74.06;101756.00;5075766;28;20716;-88
2021/10/18 11:39:11;;;;;;;13.75;9.02;;;;;;;14.08;73.56;101757.91;5073926;28;20552;-86
2021/10/18 11:41:58;;;;;;;14.23;9.02;;;;;;;14.16;72.89;101749.00;5067014;28;20059;-87
2021/10/18 11:44:48;;;;;;;11.55;8.27;;;;;;;14.27;73.79;101748.69;5060595;28;20127;-87
2021/10/18 11:47:32;;;;;;;12.43;8.65;;;;;;;14.42;73.00;101743.47;5061297;28;20234;-88
2021/10/18 11:50:14;;;;;;;15.25;8.80;;;;;;;14.57;71.71;101736.44;5057432;28;20451;-85
2021/10/18 11:52:49;;;;;;;13.80;8.50;;;;;;;14.68;70.59;101737.13;5060434;28;20059;-86
2021/10/18 11:55:29;;;;;;;12.68;7.90;;;;;;;14.78;70.34;101727.81;5046721;28;20037;-88
2021/10/18 11:57:57;;;;;;;14.77;9.02;;;;;;;14.88;69.68;101717.69;5042575;28;20037;-88
2021/10/18 12:00:31;;;;;;;11.25;7.90;;;;;;;15.02;69.53;101724.28;5041300;28;20033;-87
2021/10/18 12:03:01;;;;;;;13.85;8.43;;;;;;;15.10;68.39;101709.88;5059728;28;20033;-86
2021/10/18 12:05:49;;;;;;;9.57;7.20;;;;;;;15.13;67.46;101709.53;5045474;28;20054;-84
2021/10/18 12:08:20;;;;;;;13.10;8.07;;;;;;;15.12;66.97;101700.59;5058758;28;20033;-88
2021/10/18 12:10:47;;;;;;;14.13;7.78;;;;;;;15.14;66.91;101699.59;5078590;28;20045;-87
2021/10/18 12:13:23;;;;;;;11.05;7.00;;;;;;;15.19;66.62;101697.19;5060576;28;20043;-82
2021/10/18 12:15:50;;;;;;;11.52;7.45;;;;;;;15.24;66.52;101695.66;5060532;28;20037;-86
2021/10/18 12:18:22;;;;;;;12.10;8.02;;;;;;;15.35;67.39;101691.75;5077193;28;20063;-85
2021/10/18 12:20:52;;;;;;;12.55;7.63;;;;;;;15.43;65.86;101683.63;5054080;28;20040;-84
2021/10/18 12:23:23;;;;;;;11.98;7.13;;;;;;;15.54;64.76;101685.09;5060918;28;20037;-88
2021/10/18 12:25:55;;;;;;;12.25;7.22;;;;;;;15.65;66.29;101664.91;5060744;28;20055;-85